Main page
METAR-TAF:

METAR-TAF

Airports :

Tlemcen, Algeria

Zenata – Messali El Hadj Airport

latitude: 35-01N, longitude: 001-28W, elevation: 247 m

Current weather observation

The report was made 28 minutes ago, at 07:00 UTC
Calm wind
Temperature 6°C
Humidity 61%
Pressure 1017 hPa
Visibility 10 km or more
Few clouds at a height of 3000 ft
Broken clouds at a height of 23300 ft

METAR: DAON 220700Z 00000KT 9999 FEW030 BKN233 06/M01 Q1017

Time: 08:28 (07:28 UTC)

Forecast

The report was made 2 hours and 28 minutes ago, at 05:00 UTC
Forecast valid from 22 at 06 UTC to 23 at 06 UTC
Wind 2 kt from variable directions
Visibility 10 km or more
no clouds below 1500 m and no cumulonimbus
Temporary
from 22 at 10 UTC to 22 at 18 UTC
Wind 10 kt from the North

TAF: DAON 220500Z 2206/2306 VRB02KT CAVOK TEMPO 2210/2218 01010KT

Weather observations and forecasts of more than 4000 airports (METAR and TAF reports).

The available stations are represented by yellow and red dots on the map.

Hover mouse over dot to see the name of the station.

Then click to see weather observations and forecasts.

To change the map : click on the green buttons with a black cross to zoom in, on the green button with a dash to zoom out, or on the green arrows for adjacent maps.


METAR-TAF: